Time;durP1;ratioP1;P1;durP2;ratioP2;P2;SDS_P1;SDS_P2;PMS_P1;PMS_P2;Temp;Humidity;BMP_temperature;BMP_pressure;BME280_temperature;BME280_humidity;BME280_pressure;Samples;Min_cycle;Max_cycle;Signal;HPM_P1;HPM_P2
2021/05/18 00:00:23;;;;;;;12.40;7.03;;;11.10;99.90;;;;;;5055135;28;20935;-63
2021/05/18 00:02:49;;;;;;;10.13;5.93;;;11.00;99.90;;;;;;5055088;28;20181;-63
2021/05/18 00:05:17;;;;;;;10.38;6.32;;;11.00;99.90;;;;;;5054452;28;20177;-63
2021/05/18 00:07:54;;;;;;;11.35;6.10;;;10.90;99.90;;;;;;5037088;28;20180;-63
2021/05/18 00:13:05;;;;;;;8.70;5.30;;;10.80;99.90;;;;;;5054919;28;20636;-63
2021/05/18 00:15:31;;;;;;;8.30;5.00;;;10.70;99.90;;;;;;5054388;28;20197;-63
2021/05/18 00:17:57;;;;;;;9.70;5.20;;;10.70;99.90;;;;;;5037100;28;20427;-63
2021/05/18 00:20:23;;;;;;;8.40;5.03;;;10.90;99.90;;;;;;5054406;28;20261;-63
2021/05/18 00:22:48;;;;;;;11.03;5.63;;;10.90;99.90;;;;;;5054478;28;20531;-63
2021/05/18 00:25:17;;;;;;;14.23;5.27;;;10.90;99.90;;;;;;5054038;28;20950;-63
2021/05/18 00:27:42;;;;;;;7.57;4.65;;;10.80;99.90;;;;;;5054331;28;20191;-62
2021/05/18 00:30:10;;;;;;;9.40;5.17;;;10.80;99.90;;;;;;5054346;28;20176;-62
2021/05/18 00:32:36;;;;;;;7.20;4.82;;;10.70;99.90;;;;;;5054627;28;20185;-61
2021/05/18 00:35:03;;;;;;;8.57;4.63;;;10.60;99.90;;;;;;5054064;28;20265;-61
2021/05/18 00:37:29;;;;;;;11.23;5.90;;;10.70;99.90;;;;;;5054212;28;20547;-61
2021/05/18 00:39:54;;;;;;;8.07;5.63;;;10.60;99.90;;;;;;5054322;28;20271;-62
2021/05/18 00:42:22;;;;;;;17.10;6.90;;;10.50;99.90;;;;;;5054315;28;20173;-63
2021/05/18 00:44:52;;;;;;;10.02;6.88;;;10.70;99.90;;;;;;5036064;28;20567;-61
2021/05/18 00:47:18;;;;;;;11.23;6.20;;;10.70;99.90;;;;;;5054192;28;20169;-61
2021/05/18 00:49:44;;;;;;;18.47;7.30;;;10.50;99.90;;;;;;5053922;28;20172;-61
2021/05/18 00:52:09;;;;;;;12.00;5.80;;;10.50;99.90;;;;;;5054133;28;20202;-60
2021/05/18 00:54:51;;;;;;;13.40;6.73;;;10.60;99.90;;;;;;5052601;28;20187;-63
2021/05/18 01:00:01;;;;;;;9.32;6.93;;;10.60;99.90;;;;;;5053619;28;20706;-63
2021/05/18 01:02:27;;;;;;;9.80;6.50;;;10.40;99.90;;;;;;5053722;28;20177;-63
2021/05/18 01:05:07;;;;;;;12.33;7.50;;;10.40;99.90;;;;;;5053265;28;20173;-63
2021/05/18 01:07:33;;;;;;;9.93;5.85;;;10.50;99.90;;;;;;5053455;28;20179;-63
2021/05/18 01:09:59;;;;;;;11.98;6.57;;;10.50;99.90;;;;;;5053330;28;20192;-63
2021/05/18 01:12:25;;;;;;;13.00;6.93;;;10.50;99.90;;;;;;5053888;28;20177;-63
2021/05/18 01:14:50;;;;;;;9.73;6.50;;;10.50;99.90;;;;;;5053132;28;20195;-63
2021/05/18 01:17:16;;;;;;;8.17;6.70;;;10.40;99.90;;;;;;5053397;28;20181;-63
2021/05/18 01:19:41;;;;;;;9.77;6.90;;;10.50;99.90;;;;;;5053223;28;20212;-63
2021/05/18 01:22:07;;;;;;;10.17;7.17;;;10.50;99.90;;;;;;5053302;28;20211;-63
2021/05/18 01:24:34;;;;;;;12.43;7.60;;;10.50;99.90;;;;;;5053008;28;20515;-63
2021/05/18 01:26:59;;;;;;;10.45;7.88;;;10.80;99.90;;;;;;5053317;28;20188;-63
2021/05/18 01:29:25;;;;;;;11.30;7.20;;;10.80;99.90;;;;;;5053084;28;20181;-62
2021/05/18 01:31:51;;;;;;;9.32;6.38;;;10.70;99.90;;;;;;5053083;28;20664;-62
2021/05/18 01:34:17;;;;;;;11.73;7.40;;;10.60;99.90;;;;;;5052679;28;20195;-62
2021/05/18 01:36:45;;;;;;;11.50;8.10;;;10.50;99.90;;;;;;5053201;28;20539;-62
2021/05/18 01:44:29;;;;;;;12.85;6.75;;;10.50;99.90;;;;;;5052725;28;20188;-62
2021/05/18 01:46:55;;;;;;;12.00;6.87;;;10.40;99.90;;;;;;5052775;28;20181;-62
2021/05/18 01:49:21;;;;;;;9.40;6.60;;;10.50;99.90;;;;;;5053005;28;20635;-62
2021/05/18 01:51:58;;;;;;;10.13;6.78;;;10.50;99.90;;;;;;5035149;28;20251;-62
2021/05/18 01:54:29;;;;;;;10.60;7.00;;;10.60;99.90;;;;;;5052509;28;20176;-62
2021/05/18 01:59:29;;;;;;;11.38;6.80;;;10.40;99.90;;;;;;5053040;28;20189;-62
2021/05/18 02:01:58;;;;;;;11.85;6.55;;;10.40;99.90;;;;;;5052866;28;20212;-62
2021/05/18 02:04:30;;;;;;;11.95;7.72;;;10.40;99.90;;;;;;5052379;28;20196;-62
2021/05/18 02:06:56;;;;;;;14.18;7.22;;;10.30;99.90;;;;;;5052830;28;20180;-62
2021/05/18 02:09:22;;;;;;;13.80;6.43;;;10.40;99.90;;;;;;5052836;28;20255;-61
2021/05/18 02:11:49;;;;;;;8.27;5.60;;;10.30;99.90;;;;;;5052692;28;20894;-61
2021/05/18 02:14:28;;;;;;;11.05;5.80;;;10.20;99.90;;;;;;5034676;28;20188;-61
2021/05/18 02:16:59;;;;;;;12.85;5.55;;;10.20;99.90;;;;;;5052643;28;20188;-61
2021/05/18 02:19:49;;;;;;;9.52;6.72;;;10.10;99.90;;;;;;5052427;28;20592;-61
2021/05/18 02:22:23;;;;;;;5.50;4.78;;;10.20;99.90;;;;;;5052489;28;20262;-61
2021/05/18 02:25:09;;;;;;;16.98;5.55;;;10.10;99.90;;;;;;5034507;28;20180;-61
2021/05/18 02:27:34;;;;;;;7.03;5.38;;;10.20;99.90;;;;;;5051968;28;20195;-61
2021/05/18 02:30:01;;;;;;;5.70;4.83;;;10.40;99.90;;;;;;5052322;28;20267;-61
2021/05/18 02:32:28;;;;;;;6.57;4.65;;;10.40;99.90;;;;;;5052462;28;20427;-61
2021/05/18 02:34:54;;;;;;;8.68;5.15;;;10.20;99.90;;;;;;5052083;28;20219;-61
2021/05/18 02:37:20;;;;;;;8.45;4.05;;;10.40;99.90;;;;;;5052296;28;20187;-61
2021/05/18 02:39:46;;;;;;;5.80;3.97;;;10.40;91.00;;;;;;5052339;28;20679;-61
2021/05/18 02:42:12;;;;;;;8.80;5.00;;;10.40;90.60;;;;;;5052462;28;20264;-61
2021/05/18 02:44:49;;;;;;;9.07;4.22;;;10.40;51.60;;;;;;5051825;28;20431;-61
2021/05/18 02:49:58;;;;;;;6.00;4.80;;;10.30;39.90;;;;;;5052225;28;20633;-61
2021/05/18 02:52:25;;;;;;;8.73;5.07;;;10.30;52.50;;;;;;5052205;28;20181;-61
2021/05/18 02:54:53;;;;;;;7.07;4.53;;;10.30;56.00;;;;;;5051612;28;20199;-61
2021/05/18 02:57:32;;;;;;;6.57;4.45;;;10.40;60.40;;;;;;5052035;28;20180;-62
2021/05/18 02:59:59;;;;;;;5.97;4.53;;;10.30;73.50;;;;;;5052167;28;20303;-62
2021/05/18 03:02:25;;;;;;;9.70;4.80;;;10.30;99.10;;;;;;5052457;28;20188;-61
2021/05/18 03:04:50;;;;;;;8.70;4.23;;;10.30;98.10;;;;;;5051679;28;20181;-61
2021/05/18 03:07:16;;;;;;;7.00;4.80;;;10.40;91.20;;;;;;5052044;28;20238;-61
2021/05/18 03:09:41;;;;;;;10.10;5.90;;;10.50;68.20;;;;;;5051882;28;20249;-61
2021/05/18 03:12:07;;;;;;;7.07;4.43;;;10.50;11.40;;;;;;5052030;28;20259;-61
2021/05/18 03:14:33;;;;;;;6.43;4.80;;;10.40;1.00;;;;;;5051881;28;20236;-61
2021/05/18 03:17:01;;;;;;;7.13;4.70;;;10.20;19.20;;;;;;5032849;28;20176;-61
2021/05/18 03:19:27;;;;;;;9.63;6.00;;;10.30;32.20;;;;;;5055684;28;20172;-61
2021/05/18 03:21:52;;;;;;;10.63;4.87;;;10.40;34.90;;;;;;5055312;28;20196;-61
2021/05/18 03:24:18;;;;;;;5.87;5.00;;;10.40;54.20;;;;;;5055170;28;20174;-61
2021/05/18 03:26:48;;;;;;;9.63;5.73;;;10.50;44.90;;;;;;5055659;28;20622;-61
2021/05/18 03:29:28;;;;;;;5.53;4.78;;;10.40;57.80;;;;;;5056055;28;20219;-61
2021/05/18 03:34:39;;;;;;;7.82;5.30;;;10.70;45.30;;;;;;5055184;28;20207;-61
2021/05/18 03:37:19;;;;;;;13.85;6.57;;;10.90;10.60;;;;;;5056053;28;20180;-61
2021/05/18 03:39:46;;;;;;;7.25;5.43;;;10.90;3.20;;;;;;5058951;28;20184;-61
2021/05/18 03:42:32;;;;;;;9.18;5.80;;;10.80;2.00;;;;;;5059395;28;20248;-61
2021/05/18 03:45:15;;;;;;;14.60;5.05;;;10.50;29.30;;;;;;5057648;28;20200;-62
2021/05/18 04:04:28;;;;;;;12.43;6.05;;;11.00;6.60;;;;;;5054286;28;20652;-61
2021/05/18 04:12:43;;;;;;;8.15;5.78;;;11.90;1.00;;;;;;5055199;28;20518;-62
2021/05/18 04:18:10;;;;;;;9.02;5.65;;;15.30;1.00;;;;;;5054903;28;20187;-63
2021/05/18 04:20:48;;;;;;;7.20;4.13;;;17.30;99.90;;;;;;5054885;28;20213;-64
2021/05/18 04:23:38;;;;;;;7.57;4.63;;;19.00;99.90;;;;;;5054242;28;20207;-65
2021/05/18 04:52:37;;;;;;;5.63;4.30;;;22.60;1.00;;;;;;5054372;28;20518;-65
2021/05/18 05:16:13;;;;;;;5.97;3.80;;;21.20;1.00;;;;;;5053518;28;20295;-65
2021/05/18 05:18:38;;;;;;;6.03;3.83;;;22.40;1.00;;;;;;5053380;28;20846;-65
2021/05/18 05:21:04;;;;;;;6.70;4.80;;;23.90;1.00;;;;;;5053728;28;20219;-65
2021/05/18 05:23:29;;;;;;;6.50;4.83;;;23.30;1.00;;;;;;5053262;28;20258;-63
2021/05/18 05:25:55;;;;;;;8.90;3.93;;;21.60;1.00;;;;;;5053119;28;20228;-63
2021/05/18 05:28:20;;;;;;;9.97;4.00;;;21.20;1.00;;;;;;5053716;28;20180;-62
2021/05/18 05:30:52;;;;;;;5.50;4.00;;;22.40;1.00;;;;;;5053065;28;20195;-65
2021/05/18 05:33:17;;;;;;;5.33;4.10;;;23.80;1.00;;;;;;5053394;28;20180;-64
2021/05/18 05:35:43;;;;;;;8.80;5.17;;;24.80;1.00;;;;;;5052793;28;20434;-65
2021/05/18 05:38:09;;;;;;;7.90;4.27;;;25.70;1.00;;;;;;5053354;28;20177;-65
2021/05/18 05:40:34;;;;;;;6.07;4.20;;;26.20;1.00;;;;;;5053414;28;20259;-65
2021/05/18 05:43:00;;;;;;;5.30;3.60;;;24.90;1.00;;;;;;5053555;28;20180;-65
2021/05/18 05:45:26;;;;;;;4.83;4.03;;;24.50;1.00;;;;;;5052667;28;20555;-65
2021/05/18 05:47:51;;;;;;;8.47;4.00;;;25.60;1.00;;;;;;5053453;28;20243;-64
2021/05/18 05:50:17;;;;;;;6.03;4.73;;;25.60;1.00;;;;;;5053068;28;20614;-64
2021/05/18 05:52:43;;;;;;;5.00;3.20;;;26.20;1.00;;;;;;5053116;28;20176;-65
2021/05/18 05:55:10;;;;;;;5.43;3.40;;;26.70;1.00;;;;;;5052902;28;20423;-65
2021/05/18 05:57:39;;;;;;;9.97;4.00;;;24.80;1.00;;;;;;5053208;28;20427;-65
2021/05/18 06:00:08;;;;;;;7.97;3.33;;;25.30;1.00;;;;;;5052909;28;20519;-65
2021/05/18 06:02:33;;;;;;;7.07;3.87;;;25.70;1.00;;;;;;5053202;28;20424;-65
2021/05/18 06:05:06;;;;;;;5.23;3.90;;;25.10;1.00;;;;;;5034792;28;20440;-65
2021/05/18 06:07:31;;;;;;;7.20;3.53;;;24.60;1.00;;;;;;5052530;28;20208;-64
2021/05/18 06:10:19;;;;;;;6.33;4.27;;;23.90;1.00;;;;;;5052633;28;20482;-64
2021/05/18 06:37:40;;;;;;;4.90;3.60;;;18.70;58.20;;;;;;5052416;28;20434;-64
2021/05/18 06:48:09;;;;;;;5.07;3.93;;;17.70;1.00;;;;;;5052573;28;20441;-70
2021/05/18 06:50:35;;;;;;;6.30;3.73;;;19.30;40.30;;;;;;5057473;28;20838;-70
2021/05/18 06:53:00;;;;;;;5.67;3.67;;;20.60;1.00;;;;;;5073874;28;20442;-67
2021/05/18 06:55:29;;;;;;;5.67;4.27;;;20.90;1.00;;;;;;5072187;28;20261;-65
2021/05/18 06:58:01;;;;;;;7.40;3.90;;;18.80;19.40;;;;;;5075963;28;20195;-65
2021/05/18 07:00:28;;;;;;;4.70;4.10;;;17.70;99.90;;;;;;5075394;28;20499;-66
2021/05/18 07:02:57;;;;;;;7.27;4.20;;;16.80;1.00;;;;;;5075263;28;20426;-66
2021/05/18 07:08:01;;;;;;;6.27;4.00;;;16.00;99.90;;;;;;5072815;28;20427;-66
2021/05/18 07:10:26;;;;;;;6.67;4.77;;;15.50;1.00;;;;;;5055434;28;20447;-66
2021/05/18 07:12:52;;;;;;;6.10;4.17;;;15.40;99.90;;;;;;5062620;28;20558;-67
2021/05/18 07:15:18;;;;;;;10.77;4.77;;;15.60;99.90;;;;;;5055096;28;20613;-66
2021/05/18 07:17:43;;;;;;;7.47;4.90;;;15.80;1.00;;;;;;5071629;28;20237;-65
2021/05/18 07:20:09;;;;;;;7.13;4.93;;;16.00;99.90;;;;;;5075903;28;20204;-65
2021/05/18 07:22:35;;;;;;;6.33;5.00;;;15.90;99.90;;;;;;5076417;28;20249;-65
2021/05/18 07:25:01;;;;;;;6.97;5.03;;;16.00;1.00;;;;;;5074687;28;20448;-65
2021/05/18 07:27:26;;;;;;;10.53;6.77;;;15.70;99.90;;;;;;5075806;28;20176;-63
2021/05/18 07:29:52;;;;;;;9.33;5.93;;;15.30;1.00;;;;;;5075416;28;20635;-63
2021/05/18 07:32:17;;;;;;;8.17;5.90;;;15.40;78.00;;;;;;5075492;28;20183;-65
2021/05/18 07:34:43;;;;;;;7.97;6.10;;;15.90;99.90;;;;;;5074765;28;20208;-67
2021/05/18 07:37:08;;;;;;;6.40;5.57;;;16.30;1.00;;;;;;5075355;28;20184;-68
2021/05/18 07:39:34;;;;;;;8.20;5.83;;;16.50;99.90;;;;;;5075525;28;20180;-66
2021/05/18 07:42:00;;;;;;;5.63;4.80;;;16.10;1.00;;;;;;5054011;28;20211;-67
2021/05/18 07:44:25;;;;;;;5.80;4.87;;;16.20;99.90;;;;;;5054399;28;20185;-69
2021/05/18 07:46:51;;;;;;;6.90;4.30;;;16.20;99.90;;;;;;5055154;28;20215;-69
2021/05/18 07:49:28;;;;;;;7.07;5.50;;;16.40;1.00;;;;;;5037614;28;20173;-68
2021/05/18 08:05:44;;;;;;;6.07;4.20;;;15.30;1.00;;;;;;5074246;28;20446;-69
2021/05/18 08:08:10;;;;;;;5.80;4.43;;;15.30;1.00;;;;;;5053528;28;20180;-67
2021/05/18 08:10:46;;;;;;;6.50;3.97;;;15.20;1.00;;;;;;5063405;28;20549;-66
2021/05/18 08:13:12;;;;;;;4.30;3.63;;;15.30;1.00;;;;;;5060242;28;20581;-67
2021/05/18 08:16:31;;;;;;;8.13;4.20;;;15.00;1.00;;;;;;5071849;28;20283;-65
2021/05/18 08:21:28;;;;;;;5.03;4.53;;;15.40;1.00;;;;;;5061367;28;20232;-65
2021/05/18 10:38:44;;;;;;;4.60;3.08;;;15.40;1.00;;;;;;5077430;28;20505;-63
2021/05/18 10:41:15;;;;;;;3.53;3.23;;;16.10;99.90;;;;;;5059443;28;20214;-61
2021/05/18 10:43:42;;;;;;;5.00;2.20;;;16.40;99.90;;;;;;5077316;28;20422;-61
2021/05/18 10:46:11;;;;;;;4.07;3.60;;;16.60;99.90;;;;;;5076953;28;20430;-62
2021/05/18 10:48:37;;;;;;;4.20;2.53;;;17.00;45.90;;;;;;5076950;28;20441;-62
2021/05/18 10:51:31;;;;;;;2.83;2.30;;;17.30;1.00;;;;;;5076912;28;20422;-62
2021/05/18 10:54:17;;;;;;;2.67;2.17;;;17.70;1.00;;;;;;5073357;28;20743;-62
2021/05/18 10:56:58;;;;;;;4.40;2.40;;;17.50;1.00;;;;;;5076933;28;20426;-62
2021/05/18 10:59:44;;;;;;;4.10;2.47;;;17.20;1.00;;;;;;5076220;28;20464;-62
2021/05/18 11:02:15;;;;;;;2.60;2.10;;;17.40;1.00;;;;;;5076230;28;20792;-62
2021/05/18 11:04:55;;;;;;;4.47;2.50;;;17.40;1.00;;;;;;5076385;28;20444;-65
2021/05/18 11:07:27;;;;;;;2.83;2.53;;;17.10;1.00;;;;;;5076633;28;20462;-64
2021/05/18 11:09:53;;;;;;;6.17;2.47;;;16.90;1.00;;;;;;5076516;28;20524;-65
2021/05/18 11:12:22;;;;;;;2.30;1.87;;;17.60;1.00;;;;;;5076074;28;20480;-63
2021/05/18 11:15:08;;;;;;;2.70;2.13;;;17.40;1.00;;;;;;5075530;28;20469;-67
2021/05/18 11:17:40;;;;;;;3.40;2.10;;;17.20;1.00;;;;;;5046770;28;20921;-63
2021/05/18 11:25:56;;;;;;;3.20;2.53;;;18.30;1.00;;;;;;5075873;28;20894;-62
2021/05/18 11:28:26;;;;;;;3.17;2.60;;;18.00;1.00;;;;;;5058545;28;20430;-63
2021/05/18 11:30:58;;;;;;;3.80;2.40;;;17.00;1.00;;;;;;5078331;28;20454;-65
2021/05/18 11:33:30;;;;;;;3.53;3.17;;;16.80;1.00;;;;;;5078200;28;20427;-62
2021/05/18 11:36:11;;;;;;;3.60;2.83;;;16.40;56.30;;;;;;5076697;28;20453;-62
2021/05/18 11:38:47;;;;;;;4.17;3.10;;;16.50;54.40;;;;;;5058601;28;20517;-60
2021/05/18 11:41:24;;;;;;;4.30;2.80;;;16.40;83.80;;;;;;5077176;28;20464;-64
2021/05/18 11:43:52;;;;;;;3.63;3.30;;;16.30;99.90;;;;;;5076317;28;20422;-66
2021/05/18 11:46:17;;;;;;;3.40;2.90;;;16.40;99.90;;;;;;5076551;28;20513;-63
2021/05/18 11:48:59;;;;;;;4.70;2.77;;;16.00;99.90;;;;;;5076050;28;20454;-68
2021/05/18 11:51:25;;;;;;;4.57;3.77;;;16.10;1.00;;;;;;5058585;28;20445;-67
2021/05/18 11:53:52;;;;;;;4.27;3.63;;;15.90;1.00;;;;;;5076007;28;20427;-65
2021/05/18 11:56:23;;;;;;;5.70;3.70;;;16.20;1.00;;;;;;5076378;28;20487;-67
2021/05/18 11:58:58;;;;;;;5.13;2.97;;;16.60;1.00;;;;;;5076326;28;20436;-68
2021/05/18 12:01:24;;;;;;;4.23;3.50;;;17.00;99.90;;;;;;5076120;28;20775;-68
2021/05/18 12:04:07;;;;;;;7.43;3.47;;;17.00;99.90;;;;;;5075561;28;20480;-69
2021/05/18 12:06:34;;;;;;;7.53;3.30;;;16.90;99.90;;;;;;5057743;28;20437;-66
2021/05/18 12:09:01;;;;;;;3.50;2.70;;;17.40;99.90;;;;;;5057765;28;20426;-67
2021/05/18 12:11:26;;;;;;;3.30;2.27;;;18.00;99.90;;;;;;5075371;28;20446;-62
2021/05/18 12:13:53;;;;;;;2.93;2.03;;;18.60;1.00;;;;;;5074550;28;20483;-63
2021/05/18 12:16:21;;;;;;;2.97;2.20;;;18.80;1.00;;;;;;5075656;28;20176;-64
2021/05/18 12:18:58;;;;;;;5.03;3.10;;;18.60;1.00;;;;;;5062286;28;20473;-63
2021/05/18 12:21:30;;;;;;;3.63;2.47;;;17.90;1.00;;;;;;5058228;28;20949;-65
2021/05/18 12:24:07;;;;;;;3.77;3.47;;;18.50;1.00;;;;;;5056899;28;20454;-65
2021/05/18 12:26:44;;;;;;;4.07;3.67;;;18.40;1.00;;;;;;5056914;28;20433;-63
2021/05/18 12:29:10;;;;;;;3.33;2.83;;;18.30;1.00;;;;;;5062545;28;20465;-66
2021/05/18 12:31:37;;;;;;;3.17;2.77;;;18.70;1.00;;;;;;5075011;28;20427;-67
2021/05/18 12:34:06;;;;;;;3.70;3.20;;;17.90;1.00;;;;;;5074646;28;20180;-68
2021/05/18 12:36:46;;;;;;;3.10;2.80;;;17.40;37.10;;;;;;5076518;28;20892;-64
2021/05/18 12:39:16;;;;;;;3.77;2.70;;;17.60;11.80;;;;;;5079205;28;20445;-64
2021/05/18 12:42:00;;;;;;;3.73;2.70;;;17.70;1.00;;;;;;5061121;28;20477;-64
2021/05/18 12:44:31;;;;;;;3.43;3.13;;;16.80;99.90;;;;;;5074074;28;20984;-65
2021/05/18 12:46:59;;;;;;;3.47;3.10;;;16.80;99.90;;;;;;5075477;28;20440;-65
2021/05/18 12:49:27;;;;;;;5.47;3.30;;;16.10;99.90;;;;;;5074043;28;20452;-66
2021/05/18 12:52:03;;;;;;;2.50;2.30;;;15.70;1.00;;;;;;5073896;28;20419;-66
2021/05/18 12:54:45;;;;;;;3.77;2.30;;;15.80;1.00;;;;;;5075105;28;20917;-62
2021/05/18 12:57:12;;;;;;;3.45;2.60;;;15.40;1.00;;;;;;5076074;28;20425;-62
2021/05/18 13:00:06;;;;;;;3.13;2.85;;;15.00;1.00;;;;;;5077211;28;20180;-67
2021/05/18 13:02:33;;;;;;;3.40;3.10;;;14.80;1.00;;;;;;5070997;28;20238;-64
2021/05/18 13:05:08;;;;;;;7.20;3.30;;;14.20;99.90;;;;;;5076674;28;20498;-66
2021/05/18 13:07:33;;;;;;;4.65;3.90;;;13.90;1.00;;;;;;5083672;28;20643;-68
2021/05/18 13:10:08;;;;;;;4.13;3.47;;;13.60;99.90;;;;;;5059458;28;20195;-65
2021/05/18 13:12:33;;;;;;;5.05;3.60;;;13.40;1.00;;;;;;5056265;28;20176;-63
2021/05/18 13:15:00;;;;;;;6.10;3.83;;;13.20;1.00;;;;;;5072953;28;20628;-61
2021/05/18 13:17:27;;;;;;;5.78;4.15;;;13.30;1.00;;;;;;5073406;28;20172;-61
2021/05/18 13:20:08;;;;;;;8.63;5.07;;;13.30;1.00;;;;;;5074238;28;20270;-63
2021/05/18 13:22:36;;;;;;;5.43;4.40;;;13.50;1.00;;;;;;5073961;28;20609;-67
2021/05/18 13:27:59;;;;;;;5.50;3.55;;;13.80;1.00;;;;;;5037467;28;20259;-62
2021/05/18 13:30:27;;;;;;;3.42;3.13;;;13.80;1.00;;;;;;5053650;28;20186;-64
2021/05/18 13:32:53;;;;;;;3.75;3.45;;;13.80;1.00;;;;;;5053598;28;20173;-62
2021/05/18 13:35:20;;;;;;;5.35;2.45;;;14.10;1.00;;;;;;5035632;28;20621;-69
2021/05/18 13:37:46;;;;;;;3.05;2.58;;;14.30;1.00;;;;;;5054601;28;20192;-64
2021/05/18 13:40:13;;;;;;;2.90;2.37;;;14.60;1.00;;;;;;5054078;28;20181;-68
2021/05/18 13:42:40;;;;;;;3.30;2.05;;;14.70;99.90;;;;;;5053325;28;20883;-64
2021/05/18 13:45:06;;;;;;;2.30;2.10;;;14.80;99.90;;;;;;5052887;28;20180;-65
2021/05/18 13:47:32;;;;;;;3.30;3.00;;;14.90;99.90;;;;;;5052859;28;20511;-63
2021/05/18 13:49:58;;;;;;;2.67;2.43;;;15.20;99.90;;;;;;5035256;28;20169;-63
2021/05/18 13:52:23;;;;;;;2.80;2.50;;;15.40;99.90;;;;;;5052807;28;20761;-64
2021/05/18 13:54:53;;;;;;;3.20;2.50;;;15.50;48.50;;;;;;5052237;28;20203;-64
2021/05/18 13:57:19;;;;;;;3.70;1.70;;;15.10;1.00;;;;;;5052509;28;20242;-60
2021/05/18 13:59:45;;;;;;;1.88;1.67;;;14.80;90.50;;;;;;5052569;28;20192;-63
2021/05/18 14:02:11;;;;;;;2.17;1.97;;;14.30;1.00;;;;;;5051623;28;20608;-66
2021/05/18 14:04:36;;;;;;;2.73;2.20;;;14.90;1.00;;;;;;5034780;28;20173;-63
2021/05/18 14:10:04;;;;;;;2.60;1.80;;;16.40;1.00;;;;;;5052797;28;20644;-64
2021/05/18 14:12:30;;;;;;;3.00;2.47;;;15.90;99.90;;;;;;5052439;28;20948;-63
2021/05/18 14:14:55;;;;;;;2.93;2.30;;;16.00;99.90;;;;;;5052109;28;20492;-65
2021/05/18 14:17:21;;;;;;;2.97;2.60;;;16.30;99.90;;;;;;5050378;28;20267;-64
2021/05/18 14:19:47;;;;;;;3.70;3.30;;;16.20;1.00;;;;;;5032607;28;20564;-64
2021/05/18 14:22:13;;;;;;;3.20;2.90;;;16.40;99.90;;;;;;5014941;28;20570;-64
2021/05/18 14:24:49;;;;;;;2.10;1.90;;;16.60;99.90;;;;;;5032441;28;20191;-68
2021/05/18 14:27:18;;;;;;;2.63;2.40;;;16.50;99.90;;;;;;5033180;28;20444;-68
2021/05/18 14:29:45;;;;;;;3.33;2.20;;;16.50;99.90;;;;;;5032999;28;20440;-69
2021/05/18 14:32:10;;;;;;;1.87;1.63;;;16.40;1.00;;;;;;5032960;28;20776;-67
2021/05/18 14:34:36;;;;;;;1.70;1.60;;;15.70;99.90;;;;;;5031903;28;20436;-65
2021/05/18 14:37:01;;;;;;;4.90;1.70;;;15.60;3.80;;;;;;5032233;28;20195;-65
2021/05/18 14:39:47;;;;;;;1.50;1.40;;;15.90;1.00;;;;;;5032807;28;20208;-65
2021/05/18 14:44:57;;;;;;;3.80;1.63;;;16.40;1.00;;;;;;5031919;28;20475;-63
2021/05/18 14:47:25;;;;;;;1.80;1.30;;;16.60;1.00;;;;;;5032302;28;20909;-68
2021/05/18 14:55:21;;;;;;;2.60;1.40;;;16.00;1.00;;;;;;5035971;28;20446;-64
2021/05/18 14:57:47;;;;;;;2.20;1.73;;;16.50;1.00;;;;;;5050201;28;20437;-64
2021/05/18 15:00:14;;;;;;;2.73;1.33;;;16.40;1.00;;;;;;5045574;28;20443;-65
2021/05/18 15:02:40;;;;;;;1.43;1.27;;;16.20;1.00;;;;;;5036267;28;20938;-66
2021/05/18 15:05:06;;;;;;;1.83;1.60;;;16.20;1.00;;;;;;5051142;28;20439;-66
2021/05/18 15:07:32;;;;;;;1.43;1.33;;;16.20;1.00;;;;;;5052180;28;20238;-66
2021/05/18 15:09:58;;;;;;;2.97;1.70;;;16.20;1.00;;;;;;5050876;28;20451;-66
2021/05/18 15:12:23;;;;;;;1.87;1.60;;;16.10;1.00;;;;;;5051964;28;20206;-65
2021/05/18 15:14:51;;;;;;;1.83;1.67;;;16.30;1.00;;;;;;5054001;28;20189;-64
2021/05/18 15:17:17;;;;;;;4.20;2.27;;;16.20;1.00;;;;;;5055340;28;20176;-65
2021/05/18 15:19:44;;;;;;;2.30;2.10;;;16.50;1.00;;;;;;5017872;28;20439;-65
2021/05/18 15:22:11;;;;;;;3.50;1.70;;;16.10;1.00;;;;;;5048908;28;20274;-63
2021/05/18 15:24:36;;;;;;;3.23;2.33;;;15.80;1.00;;;;;;5054677;28;20419;-63
2021/05/18 15:27:03;;;;;;;3.03;2.13;;;15.80;1.00;;;;;;5055564;28;20430;-65
2021/05/18 15:29:29;;;;;;;2.10;1.90;;;16.20;1.00;;;;;;5055745;28;20192;-66
2021/05/18 15:31:55;;;;;;;2.53;1.70;;;16.50;6.80;;;;;;5055141;28;20481;-65
2021/05/18 15:34:21;;;;;;;2.80;1.93;;;16.10;1.00;;;;;;5054512;28;20890;-66
2021/05/18 15:36:46;;;;;;;2.07;1.57;;;15.60;80.90;;;;;;5035666;28;20181;-64
2021/05/18 15:39:12;;;;;;;1.97;1.77;;;15.10;1.00;;;;;;5035511;28;20424;-64
2021/05/18 15:41:38;;;;;;;3.15;2.88;;;15.00;92.40;;;;;;5035217;28;20634;-67
2021/05/18 15:44:04;;;;;;;3.70;2.63;;;15.00;99.90;;;;;;5034738;28;20181;-65
2021/05/18 15:46:30;;;;;;;2.40;2.20;;;15.20;1.00;;;;;;5035502;28;20525;-65
2021/05/18 15:48:55;;;;;;;2.23;1.87;;;15.10;1.00;;;;;;5034942;28;20439;-65
2021/05/18 15:51:30;;;;;;;2.47;2.20;;;15.30;99.90;;;;;;5035079;28;20506;-66
2021/05/18 15:53:55;;;;;;;2.33;2.10;;;15.50;99.90;;;;;;5034218;28;20188;-65
2021/05/18 15:56:27;;;;;;;3.40;2.70;;;15.70;1.00;;;;;;5035274;28;20185;-65
2021/05/18 15:58:52;;;;;;;2.97;2.50;;;15.40;99.90;;;;;;5017701;28;20182;-66
2021/05/18 16:01:19;;;;;;;3.33;2.37;;;15.20;99.90;;;;;;5035273;28;20470;-67
2021/05/18 16:03:45;;;;;;;2.67;2.30;;;15.10;1.00;;;;;;5034568;28;20177;-64
2021/05/18 16:06:10;;;;;;;2.87;2.53;;;15.10;1.00;;;;;;5035069;28;20272;-62
2021/05/18 16:11:09;;;;;;;3.00;2.50;;;15.10;99.90;;;;;;5034628;28;20189;-66
2021/05/18 16:13:35;;;;;;;3.50;2.60;;;14.80;99.90;;;;;;5034690;28;20573;-63
2021/05/18 16:16:08;;;;;;;3.70;2.60;;;14.30;1.00;;;;;;5034020;28;20512;-63
2021/05/18 16:18:38;;;;;;;5.38;3.03;;;13.70;1.00;;;;;;5050755;28;20181;-67
2021/05/18 16:21:05;;;;;;;3.78;3.35;;;12.90;95.70;;;;;;5053720;28;20201;-65
2021/05/18 16:23:33;;;;;;;6.15;4.03;;;12.60;99.90;;;;;;5036366;28;20223;-65
2021/05/18 16:25:59;;;;;;;5.22;3.00;;;12.50;99.90;;;;;;5054082;28;20185;-66
2021/05/18 16:28:25;;;;;;;3.90;3.00;;;12.10;99.90;;;;;;5036986;28;20601;-64
2021/05/18 16:30:51;;;;;;;3.50;2.37;;;12.00;99.90;;;;;;5054157;28;20180;-62
2021/05/18 16:33:17;;;;;;;3.60;2.70;;;11.80;99.90;;;;;;5054575;28;20518;-63
2021/05/18 16:35:44;;;;;;;2.95;2.75;;;11.70;99.90;;;;;;5052079;28;20195;-62
2021/05/18 16:38:10;;;;;;;2.22;2.03;;;11.90;99.90;;;;;;5052648;28;20193;-63
2021/05/18 16:40:35;;;;;;;2.80;2.50;;;12.20;99.90;;;;;;5034667;28;20208;-62
2021/05/18 16:43:03;;;;;;;3.53;2.90;;;12.20;99.90;;;;;;5042592;28;20436;-66
2021/05/18 16:45:33;;;;;;;4.05;3.25;;;12.50;99.90;;;;;;5032549;28;20181;-63
2021/05/18 16:47:58;;;;;;;4.65;3.60;;;13.10;99.90;;;;;;5032873;28;20564;-63
2021/05/18 16:50:24;;;;;;;4.13;3.70;;;13.50;27.70;;;;;;5016481;28;20174;-63
2021/05/18 16:52:49;;;;;;;4.00;2.90;;;13.80;20.20;;;;;;5051224;28;20181;-62
2021/05/18 16:55:15;;;;;;;5.00;3.10;;;14.10;1.00;;;;;;5053685;28;20165;-67
2021/05/18 16:57:41;;;;;;;3.60;3.27;;;14.30;1.00;;;;;;5053821;28;20175;-64
2021/05/18 17:00:10;;;;;;;6.13;3.50;;;14.40;1.00;;;;;;5053759;28;20255;-62
2021/05/18 17:02:36;;;;;;;3.50;3.20;;;14.70;1.00;;;;;;5035983;28;20212;-63
2021/05/18 17:05:03;;;;;;;3.43;3.10;;;15.00;1.00;;;;;;5053850;28;20310;-67
2021/05/18 17:07:28;;;;;;;4.15;3.00;;;15.20;1.00;;;;;;5036005;28;20266;-63
2021/05/18 17:09:54;;;;;;;4.00;3.07;;;15.30;1.00;;;;;;5053043;28;20622;-67
2021/05/18 17:12:23;;;;;;;3.87;3.03;;;15.70;99.90;;;;;;5053756;28;20484;-67
2021/05/18 17:14:50;;;;;;;3.50;3.20;;;15.80;99.90;;;;;;5053112;28;20876;-67
2021/05/18 17:17:16;;;;;;;3.78;3.20;;;16.10;99.90;;;;;;5053543;28;20231;-64
2021/05/18 17:19:42;;;;;;;4.13;3.53;;;16.30;99.90;;;;;;5053489;28;20180;-66
2021/05/18 17:22:09;;;;;;;3.83;3.00;;;16.40;99.90;;;;;;5052987;28;20211;-67
2021/05/18 17:24:35;;;;;;;3.60;3.30;;;16.20;3.60;;;;;;5052911;28;20177;-64
2021/05/18 17:27:02;;;;;;;4.83;4.43;;;16.20;10.90;;;;;;5034740;28;20715;-65
2021/05/18 17:29:27;;;;;;;5.00;4.50;;;15.90;99.90;;;;;;5031292;28;20239;-64
2021/05/18 17:31:53;;;;;;;4.20;3.60;;;15.80;99.90;;;;;;5033053;28;20271;-64
2021/05/18 17:34:19;;;;;;;4.00;3.60;;;15.70;99.90;;;;;;5032559;28;20181;-64
2021/05/18 17:36:48;;;;;;;4.95;3.70;;;15.60;99.90;;;;;;5032404;28;20178;-64
2021/05/18 17:39:14;;;;;;;5.93;3.75;;;15.40;99.90;;;;;;5032097;28;20191;-64
2021/05/18 17:41:39;;;;;;;4.93;3.50;;;15.30;99.90;;;;;;5030751;28;20658;-63
2021/05/18 17:44:05;;;;;;;4.07;3.73;;;15.10;99.90;;;;;;5030138;28;20516;-62
2021/05/18 17:46:32;;;;;;;6.90;4.10;;;14.90;99.90;;;;;;5030498;28;20178;-64
2021/05/18 17:48:59;;;;;;;4.65;3.88;;;14.90;99.90;;;;;;5030239;28;20220;-64
2021/05/18 17:51:25;;;;;;;4.28;3.88;;;14.60;99.90;;;;;;5030345;28;20524;-63
2021/05/18 17:53:52;;;;;;;5.65;3.92;;;14.60;1.00;;;;;;5030588;28;20553;-66
2021/05/18 17:56:17;;;;;;;4.93;4.43;;;14.80;1.00;;;;;;5033032;28;20196;-65
2021/05/18 17:58:43;;;;;;;4.97;4.43;;;14.90;1.00;;;;;;5038344;28;20185;-66